Time;durP1;ratioP1;P1;durP2;ratioP2;P2;SDS_P1;SDS_P2;PMS_P1;PMS_P2;Temp;Humidity;BMP_temperature;BMP_pressure;BME280_temperature;BME280_humidity;BME280_pressure;Samples;Min_cycle;Max_cycle;Signal;HPM_P1;HPM_P2
2023/04/17 00:03:51;;;;;;;87.82;42.30;;;;;;;10.38;100.00;101378.28;8257252;28;20065;-61
2023/04/17 00:07:53;;;;;;;91.28;41.22;;;;;;;10.38;100.00;101383.69;8256727;28;20050;-62
2023/04/17 00:11:53;;;;;;;95.53;42.55;;;;;;;10.36;100.00;101382.94;8256497;28;20496;-62
2023/04/17 00:15:53;;;;;;;84.30;41.95;;;;;;;10.37;100.00;101384.66;8256793;28;20070;-61
2023/04/17 00:19:54;;;;;;;96.15;44.33;;;;;;;10.37;100.00;101378.41;8255804;28;20073;-62
2023/04/17 00:23:54;;;;;;;99.57;44.53;;;;;;;10.35;100.00;101375.81;8256393;28;20038;-61
2023/04/17 00:27:55;;;;;;;89.35;43.08;;;;;;;10.35;100.00;101370.41;8254506;28;20069;-56
2023/04/17 00:31:55;;;;;;;100.40;46.42;;;;;;;10.34;100.00;101365.13;8256715;28;20085;-55
2023/04/17 00:35:55;;;;;;;98.50;45.40;;;;;;;10.32;100.00;101367.94;8256326;28;20042;-60
2023/04/17 00:39:56;;;;;;;91.53;44.40;;;;;;;10.33;100.00;101366.97;8256629;28;20049;-61
2023/04/17 00:43:56;;;;;;;101.63;47.35;;;;;;;10.31;100.00;101363.50;8256438;28;20089;-56
2023/04/17 00:47:58;;;;;;;108.85;46.88;;;;;;;10.34;100.00;101357.03;8255504;28;20070;-56
2023/04/17 00:52:00;;;;;;;104.53;48.05;;;;;;;10.33;100.00;101356.16;8255255;28;20062;-56
2023/04/17 00:56:04;;;;;;;120.53;51.65;;;;;;;10.37;100.00;101354.94;8255330;28;20121;-56
2023/04/17 01:00:08;;;;;;;116.80;49.47;;;;;;;10.40;100.00;101357.38;8255388;28;20532;-55
2023/04/17 01:04:09;;;;;;;116.70;49.35;;;;;;;10.39;100.00;101344.00;8255915;28;20498;-55
2023/04/17 01:08:09;;;;;;;103.20;48.65;;;;;;;10.39;100.00;101344.88;8255376;28;20043;-55
2023/04/17 01:12:25;;;;;;;100.60;46.78;;;;;;;10.40;100.00;101351.97;8254965;28;20460;-56
2023/04/17 01:16:29;;;;;;;120.53;49.97;;;;;;;10.40;100.00;101360.09;8255052;28;20039;-56
2023/04/17 01:20:30;;;;;;;113.22;48.53;;;;;;;10.41;100.00;101353.72;8238939;28;20066;-56
2023/04/17 01:24:30;;;;;;;107.70;47.17;;;;;;;10.42;100.00;101349.16;8255575;28;20553;-56
2023/04/17 01:28:31;;;;;;;99.95;48.50;;;;;;;10.43;100.00;101351.75;8254819;28;20475;-58
2023/04/17 01:32:31;;;;;;;105.40;47.08;;;;;;;10.41;100.00;101353.72;8255488;28;20038;-56
2023/04/17 01:36:32;;;;;;;115.97;49.33;;;;;;;10.44;100.00;101353.50;8254895;28;20046;-56
2023/04/17 01:40:33;;;;;;;110.20;47.97;;;;;;;10.42;100.00;101355.44;8255149;28;20047;-56
2023/04/17 01:44:36;;;;;;;124.63;50.20;;;;;;;10.43;100.00;101351.75;8228990;28;20409;-56
2023/04/17 01:48:38;;;;;;;103.78;49.25;;;;;;;10.43;100.00;101357.16;8224902;28;20058;-56
2023/04/17 01:52:38;;;;;;;118.95;50.97;;;;;;;10.45;100.00;101355.19;8255158;28;20046;-56
2023/04/17 01:56:40;;;;;;;104.80;48.70;;;;;;;10.45;100.00;101360.59;8254416;28;20046;-61
2023/04/17 02:00:40;;;;;;;106.72;49.13;;;;;;;10.47;100.00;101358.66;8255309;28;20097;-56
2023/04/17 02:04:40;;;;;;;110.03;50.67;;;;;;;10.43;100.00;101354.44;8257225;28;20125;-56
2023/04/17 02:08:42;;;;;;;106.13;47.83;;;;;;;10.48;100.00;101360.38;8260046;28;20093;-56
2023/04/17 02:12:43;;;;;;;104.28;47.78;;;;;;;10.45;100.00;101352.50;8260880;28;20375;-56
2023/04/17 02:16:44;;;;;;;106.63;49.80;;;;;;;10.48;100.00;101357.66;8259883;28;20042;-56
2023/04/17 02:20:45;;;;;;;116.57;47.80;;;;;;;10.45;100.00;101351.63;8260167;28;20064;-56
2023/04/17 02:24:45;;;;;;;104.78;49.65;;;;;;;10.42;100.00;101352.72;8260683;28;20035;-61
2023/04/17 02:28:46;;;;;;;114.63;48.72;;;;;;;10.40;100.00;101351.16;8237874;28;20528;-61
2023/04/17 02:32:50;;;;;;;111.05;50.03;;;;;;;10.44;100.00;101353.50;8239555;28;20085;-62
2023/04/17 02:36:51;;;;;;;117.32;52.55;;;;;;;10.43;100.00;101351.75;8227732;28;20050;-61
2023/04/17 02:40:54;;;;;;;113.40;49.95;;;;;;;10.44;100.00;101342.69;8228055;28;20038;-61
2023/04/17 02:44:54;;;;;;;125.07;53.03;;;;;;;10.43;100.00;101345.50;8227638;28;20046;-61
2023/04/17 02:48:56;;;;;;;108.38;51.33;;;;;;;10.42;100.00;101344.63;8227507;28;20065;-61
2023/04/17 02:52:56;;;;;;;117.25;50.38;;;;;;;10.44;100.00;101348.09;8248149;28;20048;-62
2023/04/17 02:56:57;;;;;;;117.72;52.03;;;;;;;10.41;100.00;101342.91;8243329;28;20457;-61
2023/04/17 03:01:00;;;;;;;124.50;55.40;;;;;;;10.45;100.00;101355.19;8261133;28;20038;-60
2023/04/17 03:05:03;;;;;;;126.22;56.15;;;;;;;10.46;100.00;101350.66;8290652;28;20038;-59
2023/04/17 03:09:04;;;;;;;127.15;56.88;;;;;;;10.42;100.00;101344.63;8291399;28;20065;-60
2023/04/17 03:13:05;;;;;;;122.57;57.97;;;;;;;10.44;100.00;101355.31;8291335;28;20041;-60
2023/04/17 03:17:07;;;;;;;128.40;54.65;;;;;;;10.42;100.00;101360.84;8289469;28;20076;-60
2023/04/17 03:21:08;;;;;;;134.88;58.90;;;;;;;10.41;100.00;101359.13;8284902;28;20038;-60
2023/04/17 03:25:09;;;;;;;131.65;57.63;;;;;;;10.40;100.00;101349.28;8258736;28;20097;-60
2023/04/17 03:29:17;;;;;;;127.25;56.47;;;;;;;10.37;100.00;101351.38;8258384;28;20038;-56
2023/04/17 03:33:18;;;;;;;117.80;55.42;;;;;;;10.38;100.00;101359.38;8258539;28;20034;-56
2023/04/17 03:37:19;;;;;;;125.63;56.75;;;;;;;10.37;100.00;101357.63;8256395;28;20524;-56
2023/04/17 03:41:19;;;;;;;126.80;57.78;;;;;;;10.37;100.00;101363.03;8258499;28;20113;-56
2023/04/17 03:45:21;;;;;;;130.50;58.35;;;;;;;10.36;100.00;101347.81;8257804;28;20083;-60
2023/04/17 03:49:22;;;;;;;132.25;59.08;;;;;;;10.36;100.00;101366.72;8257918;28;20541;-60
2023/04/17 03:53:24;;;;;;;142.63;59.50;;;;;;;10.34;100.00;101357.88;8257593;28;20481;-60
2023/04/17 03:57:25;;;;;;;135.48;59.05;;;;;;;10.32;100.00;101359.84;8257397;28;20433;-56
2023/04/17 04:01:27;;;;;;;134.30;57.30;;;;;;;10.33;100.00;101361.56;8257529;28;20038;-56
2023/04/17 04:05:43;;;;;;;146.60;62.97;;;;;;;10.34;100.00;101365.13;8255497;28;20046;-56
2023/04/17 04:09:45;;;;;;;136.32;58.15;;;;;;;10.32;100.00;101365.25;8257365;28;20042;-56
2023/04/17 04:13:45;;;;;;;134.95;61.42;;;;;;;10.31;100.00;101357.25;8255194;28;20042;-56
2023/04/17 04:17:46;;;;;;;131.13;60.70;;;;;;;10.31;100.00;101363.50;8256721;28;20113;-56
2023/04/17 04:21:47;;;;;;;143.25;61.85;;;;;;;10.29;100.00;101359.22;8242432;28;20042;-63
2023/04/17 04:25:48;;;;;;;139.02;63.08;;;;;;;10.27;100.00;101359.31;8280275;28;20044;-63
2023/04/17 04:30:00;;;;;;;144.10;62.10;;;;;;;10.26;100.00;101356.75;8241809;28;20426;-63
2023/04/17 04:34:04;;;;;;;142.57;64.13;;;;;;;10.24;100.00;101364.97;8212942;28;20365;-60
2023/04/17 04:38:05;;;;;;;145.93;64.90;;;;;;;10.24;100.00;101367.66;8249113;28;20038;-61
2023/04/17 04:42:08;;;;;;;147.55;66.35;;;;;;;10.24;100.00;101373.06;8257529;28;20038;-61
2023/04/17 04:46:23;;;;;;;146.50;65.97;;;;;;;10.25;100.00;101374.81;8255643;28;20065;-62
2023/04/17 04:50:24;;;;;;;158.18;65.93;;;;;;;10.24;100.00;101370.38;8239786;28;20801;-62
2023/04/17 04:54:25;;;;;;;154.43;66.60;;;;;;;10.24;100.00;101370.38;8237038;28;20038;-56
2023/04/17 04:58:30;;;;;;;147.35;64.25;;;;;;;10.25;100.00;101382.06;8241551;28;20435;-57
2023/04/17 05:02:34;;;;;;;144.75;65.15;;;;;;;10.23;100.00;101390.28;8232395;28;20506;-57
2023/04/17 05:06:36;;;;;;;157.23;68.82;;;;;;;10.26;100.00;101387.34;8312332;28;20562;-58
2023/04/17 05:10:37;;;;;;;174.05;73.25;;;;;;;10.27;100.00;101386.34;8320436;28;20129;-58
2023/04/17 05:14:39;;;;;;;164.80;70.78;;;;;;;10.27;100.00;101391.75;8318855;28;20078;-57
2023/04/17 05:18:43;;;;;;;177.77;72.75;;;;;;;10.31;100.00;101398.63;8318345;28;20045;-61
2023/04/17 05:22:47;;;;;;;158.35;70.78;;;;;;;10.30;100.00;101402.34;8253927;28;20314;-61
2023/04/17 05:26:48;;;;;;;158.25;70.35;;;;;;;10.30;100.00;101399.63;8253171;28;20035;-61
2023/04/17 05:30:49;;;;;;;162.23;68.47;;;;;;;10.31;100.00;101405.91;8248407;28;20042;-60
2023/04/17 05:34:58;;;;;;;167.45;69.63;;;;;;;10.32;100.00;101407.63;8257341;28;20046;-61
2023/04/17 05:39:01;;;;;;;146.15;67.30;;;;;;;10.33;100.00;101404.81;8254728;28;20209;-59
2023/04/17 05:43:07;;;;;;;163.80;68.57;;;;;;;10.34;100.00;101405.69;8241976;28;20046;-61
2023/04/17 05:47:07;;;;;;;158.18;67.43;;;;;;;10.36;100.00;101404.56;8240455;28;20540;-61
2023/04/17 05:51:07;;;;;;;139.82;65.20;;;;;;;10.38;100.00;101408.03;8247595;28;20413;-61
2023/04/17 05:55:08;;;;;;;137.98;63.88;;;;;;;10.42;100.00;101411.34;8233653;28;20038;-61
2023/04/17 05:59:09;;;;;;;132.45;62.13;;;;;;;10.45;100.00;101408.41;8242564;28;20113;-61
2023/04/17 06:03:10;;;;;;;125.70;57.63;;;;;;;10.52;100.00;101415.91;8238398;28;20543;-61
2023/04/17 06:07:13;;;;;;;121.53;58.35;;;;;;;10.50;100.00;101412.50;8239411;28;20074;-61
2023/04/17 06:11:16;;;;;;;119.78;54.67;;;;;;;10.53;100.00;101427.59;8242939;28;20035;-61
2023/04/17 06:15:17;;;;;;;119.03;56.47;;;;;;;10.52;100.00;101424.03;8240450;28;20089;-61
2023/04/17 06:19:18;;;;;;;102.22;54.22;;;;;;;10.53;100.00;101417.66;8298290;28;20041;-61
2023/04/17 06:23:18;;;;;;;105.35;52.17;;;;;;;10.55;100.00;101429.19;8278839;28;20584;-61
2023/04/17 06:27:19;;;;;;;108.28;53.20;;;;;;;10.59;100.00;101428.00;8271067;28;20041;-62
2023/04/17 06:31:19;;;;;;;105.45;52.25;;;;;;;10.59;100.00;101428.00;8280707;28;20040;-62
2023/04/17 06:35:21;;;;;;;108.03;53.67;;;;;;;10.59;100.00;101429.84;8242301;28;20112;-61
2023/04/17 06:39:26;;;;;;;101.93;52.60;;;;;;;10.56;100.00;101433.66;8242744;28;20043;-61
2023/04/17 06:43:27;;;;;;;101.32;52.67;;;;;;;10.59;100.00;101432.53;8241665;28;20041;-61
2023/04/17 06:47:28;;;;;;;106.10;53.70;;;;;;;10.55;100.00;101429.19;8269789;28;20077;-57
2023/04/17 06:51:28;;;;;;;108.50;53.85;;;;;;;10.53;100.00;101446.53;8261474;28;20042;-61
2023/04/17 06:55:29;;;;;;;110.38;52.53;;;;;;;10.52;100.00;101453.78;8242513;28;20146;-61
2023/04/17 06:59:30;;;;;;;107.78;52.45;;;;;;;10.53;100.00;101455.50;8258319;28;20129;-61
2023/04/17 07:03:30;;;;;;;103.78;53.03;;;;;;;10.55;100.00;101456.25;8258800;28;20058;-57
2023/04/17 07:07:32;;;;;;;104.32;53.67;;;;;;;10.56;100.00;101458.00;8258219;28;20034;-57
2023/04/17 07:11:33;;;;;;;109.85;52.58;;;;;;;10.68;100.00;101451.63;8256647;28;20034;-57
2023/04/17 07:15:33;;;;;;;113.22;53.75;;;;;;;10.67;100.00;101463.41;8253381;28;20046;-57
2023/04/17 07:19:34;;;;;;;106.35;54.13;;;;;;;10.69;100.00;101458.75;8287175;28;20045;-57
2023/04/17 07:23:35;;;;;;;105.22;54.25;;;;;;;10.73;100.00;101464.81;8272502;28;20065;-57
2023/04/17 07:27:37;;;;;;;109.00;54.28;;;;;;;10.75;100.00;101466.41;8250051;28;20038;-57
2023/04/17 07:31:37;;;;;;;104.47;52.28;;;;;;;10.79;100.00;101459.75;8234039;28;20532;-57
2023/04/17 07:35:38;;;;;;;94.95;50.95;;;;;;;10.81;100.00;101465.94;8233218;28;20043;-57
2023/04/17 07:39:38;;;;;;;91.15;49.42;;;;;;;10.85;100.00;101475.53;8243002;28;20044;-57
2023/04/17 07:43:39;;;;;;;92.45;48.33;;;;;;;10.81;100.00;101482.16;8240638;28;20080;-57
2023/04/17 07:47:40;;;;;;;90.03;48.03;;;;;;;10.88;100.00;101483.41;8320865;28;20045;-58
2023/04/17 07:51:41;;;;;;;85.40;42.38;;;;;;;10.98;100.00;101489.81;8291558;28;20045;-55
2023/04/17 07:59:32;;;;;;;77.18;42.78;;;;;;;10.68;100.00;101496.75;8351368;27;20396;-51
2023/04/17 08:03:33;;;;;;;70.50;40.58;;;;;;;10.67;100.00;101495.88;8347836;28;20052;-53
2023/04/17 08:07:34;;;;;;;66.45;38.85;;;;;;;10.77;100.00;101496.03;8347833;28;20033;-53
2023/04/17 08:11:34;;;;;;;70.55;40.13;;;;;;;10.81;100.00;101495.69;8347619;28;20040;-56
2023/04/17 08:15:39;;;;;;;70.05;39.15;;;;;;;10.95;100.00;101503.56;8346531;28;20049;-60
2023/04/17 08:19:40;;;;;;;69.32;37.72;;;;;;;11.03;100.00;101503.84;8348058;28;20059;-59
2023/04/17 08:23:40;;;;;;;65.85;36.50;;;;;;;11.01;100.00;101500.41;8320243;28;20109;-59
2023/04/17 08:27:42;;;;;;;65.93;38.08;;;;;;;11.10;100.00;101509.66;8312913;28;20042;-60
2023/04/17 08:31:42;;;;;;;61.67;37.20;;;;;;;11.11;100.00;101514.94;8336184;28;20070;-60
2023/04/17 08:35:43;;;;;;;63.50;37.20;;;;;;;11.05;100.00;101512.72;8313824;28;20124;-60
2023/04/17 08:39:43;;;;;;;63.35;36.90;;;;;;;11.11;100.00;101523.06;8313019;28;20037;-60
2023/04/17 08:43:49;;;;;;;63.10;35.65;;;;;;;11.15;100.00;101519.13;8314535;28;20041;-60
2023/04/17 08:47:50;;;;;;;59.53;36.55;;;;;;;11.21;100.00;101518.66;8312956;28;20042;-60
2023/04/17 08:51:50;;;;;;;64.88;37.38;;;;;;;11.28;100.00;101530.72;8304025;28;20050;-56
2023/04/17 08:55:51;;;;;;;62.30;36.00;;;;;;;11.32;100.00;101526.78;8300409;28;20045;-56
2023/04/17 08:59:51;;;;;;;62.25;37.05;;;;;;;11.39;100.00;101521.75;8322912;28;20530;-55
2023/04/17 09:03:52;;;;;;;68.57;37.97;;;;;;;11.61;100.00;101517.22;8344841;28;20068;-56
2023/04/17 09:08:15;;;;;;;59.80;35.85;;;;;;;11.70;100.00;101527.34;8339592;28;20045;-56
2023/04/17 09:12:17;;;;;;;57.97;34.95;;;;;;;11.73;100.00;101527.09;8296082;28;20038;-56
2023/04/17 09:16:19;;;;;;;58.78;34.38;;;;;;;11.72;100.00;101522.66;8291411;28;20381;-61
2023/04/17 09:20:19;;;;;;;66.30;36.58;;;;;;;11.99;100.00;101526.84;8292193;28;20046;-56
2023/04/17 09:24:36;;;;;;;60.20;34.25;;;;;;;11.98;100.00;101519.72;8259142;28;20124;-56
2023/04/17 09:28:38;;;;;;;55.92;33.15;;;;;;;12.01;100.00;101530.28;8291554;28;20538;-60
2023/04/17 09:32:40;;;;;;;55.83;33.35;;;;;;;11.87;100.00;101529.53;8306939;28;20091;-61
2023/04/17 09:36:42;;;;;;;58.85;33.85;;;;;;;11.82;100.00;101526.38;8291081;28;20523;-60
2023/04/17 09:40:44;;;;;;;54.38;32.83;;;;;;;11.90;100.00;101534.72;8291333;28;20566;-60
2023/04/17 09:44:44;;;;;;;56.15;34.33;;;;;;;12.03;100.00;101528.31;8290519;28;20165;-60
2023/04/17 09:48:46;;;;;;;62.17;35.53;;;;;;;12.08;100.00;101528.81;8290673;28;20049;-60
2023/04/17 09:52:49;;;;;;;56.45;35.17;;;;;;;12.14;99.91;101528.28;8290947;28;20042;-60
2023/04/17 09:56:54;;;;;;;59.17;35.25;;;;;;;12.41;99.13;101528.75;8258605;28;20409;-60
2023/04/17 10:00:55;;;;;;;57.63;34.67;;;;;;;12.75;95.30;101527.63;8293625;28;20065;-60
2023/04/17 10:04:55;;;;;;;56.58;33.15;;;;;;;13.05;92.95;101520.47;8323518;28;20033;-60
2023/04/17 10:08:56;;;;;;;57.80;33.22;;;;;;;13.58;91.53;101519.34;8323087;28;20488;-56
2023/04/17 10:12:59;;;;;;;46.17;28.38;;;;;;;15.66;82.22;101503.38;8322535;28;20447;-56
2023/04/17 10:17:27;;;;;;;44.28;27.98;;;;;;;15.69;78.71;101505.81;8324208;28;20076;-56
2023/04/17 10:21:28;;;;;;;37.75;25.05;;;;;;;16.26;75.33;101509.25;8313190;28;20129;-56
2023/04/17 10:25:29;;;;;;;41.17;26.42;;;;;;;15.94;77.75;101497.94;8289692;28;20029;-56
2023/04/17 10:34:04;;;;;;;34.53;23.00;;;;;;;17.47;69.48;101493.00;8351549;27;20402;-55
2023/04/17 10:38:06;;;;;;;27.52;17.10;;;;;;;16.46;66.64;101499.94;8348339;28;20041;-59
2023/04/17 10:42:07;;;;;;;27.73;17.27;;;;;;;17.25;67.22;101498.97;8348394;28;20120;-55
2023/04/17 10:46:11;;;;;;;31.55;21.08;;;;;;;16.85;68.11;101493.16;8347403;28;20045;-55
2023/04/17 10:50:13;;;;;;;28.88;19.25;;;;;;;15.70;69.96;101490.28;8348418;28;20037;-55
2023/04/17 10:54:14;;;;;;;28.25;19.67;;;;;;;14.92;71.76;101487.03;8347976;28;20041;-55
2023/04/17 10:58:14;;;;;;;25.25;16.63;;;;;;;14.62;71.66;101479.88;8348129;28;20095;-55
2023/04/17 11:02:15;;;;;;;26.50;16.75;;;;;;;17.47;68.14;101482.06;8346858;28;20047;-55
2023/04/17 11:06:16;;;;;;;20.65;13.65;;;;;;;19.05;58.96;101473.69;8347764;28;20545;-55
2023/04/17 11:10:19;;;;;;;22.20;13.88;;;;;;;19.74;56.76;101474.94;8348017;28;20586;-55
2023/04/17 11:14:22;;;;;;;18.83;13.90;;;;;;;20.38;55.48;101469.19;8347072;28;20053;-55
2023/04/17 11:18:22;;;;;;;18.77;13.15;;;;;;;19.13;56.37;101470.91;8346836;28;20537;-55
2023/04/17 11:22:23;;;;;;;18.90;13.05;;;;;;;18.45;58.20;101464.03;8347289;28;20372;-55
2023/04/17 11:26:23;;;;;;;19.33;13.23;;;;;;;18.31;56.95;101467.41;8346608;28;20065;-56
2023/04/17 11:30:30;;;;;;;17.90;12.27;;;;;;;17.29;60.07;101471.16;8346421;28;20045;-55
2023/04/17 11:34:31;;;;;;;33.70;13.65;;;;;;;18.66;58.01;101467.16;8344551;28;20427;-56
2023/04/17 11:38:32;;;;;;;19.95;13.68;;;;;;;18.66;56.50;101469.06;8346147;28;20371;-56
2023/04/17 11:42:32;;;;;;;19.05;12.60;;;;;;;19.00;55.56;101467.84;8340589;28;20087;-59
2023/04/17 11:46:33;;;;;;;17.25;13.32;;;;;;;19.14;54.88;101463.56;8324780;28;20053;-58
2023/04/17 11:50:34;;;;;;;19.55;13.05;;;;;;;19.19;53.52;101461.16;8323676;28;20478;-59
2023/04/17 11:54:37;;;;;;;17.13;12.25;;;;;;;18.86;53.02;101474.03;8324023;28;20392;-59
2023/04/17 11:58:47;;;;;;;19.50;12.82;;;;;;;17.78;55.81;101476.94;8324334;28;20096;-59
2023/04/17 12:02:47;;;;;;;16.77;12.18;;;;;;;16.96;57.79;101465.63;8324080;28;20037;-59
2023/04/17 12:06:48;;;;;;;20.88;12.40;;;;;;;17.13;59.21;101460.13;8323446;28;20033;-59
2023/04/17 12:10:48;;;;;;;18.95;11.77;;;;;;;16.49;58.63;101470.47;8323314;28;20500;-59
2023/04/17 12:14:49;;;;;;;19.60;12.85;;;;;;;15.86;61.25;101462.38;8322383;28;20064;-60
2023/04/17 12:18:49;;;;;;;16.33;12.20;;;;;;;16.12;62.16;101458.78;8296420;28;20117;-56
2023/04/17 12:22:50;;;;;;;21.77;12.35;;;;;;;15.96;61.67;101458.59;8289942;28;20057;-56
2023/04/17 12:26:51;;;;;;;16.65;10.80;;;;;;;15.52;62.39;101462.97;8290213;28;21459;-56
2023/04/17 12:30:51;;;;;;;17.65;10.90;;;;;;;15.71;60.55;101453.84;8290193;28;20041;-56
2023/04/17 12:34:52;;;;;;;14.52;10.07;;;;;;;15.87;59.75;101453.19;8290118;28;20064;-56
2023/04/17 12:38:52;;;;;;;16.25;10.82;;;;;;;15.77;59.18;101452.38;8290457;28;20030;-56
2023/04/17 12:42:53;;;;;;;16.63;10.15;;;;;;;15.69;59.98;101443.09;8288711;28;20069;-56
2023/04/17 12:46:53;;;;;;;15.50;10.07;;;;;;;15.87;58.86;101448.59;8289530;28;20118;-57
2023/04/17 12:50:54;;;;;;;17.85;10.52;;;;;;;15.79;58.68;101439.47;8289249;28;20104;-56
2023/04/17 12:54:58;;;;;;;14.10;10.15;;;;;;;15.97;58.26;101443.06;8288166;28;20475;-56
2023/04/17 12:58:58;;;;;;;;;;;;;;;16.21;58.73;101441.50;8283522;28;20049;-56
2023/04/17 13:03:00;;;;;;;16.47;8.47;;;;;;;16.13;57.60;101432.38;8270301;28;19925;-56
2023/04/17 13:07:00;;;;;;;17.33;7.22;;;;;;;16.50;56.95;101424.94;8273419;28;20281;-56
2023/04/17 13:11:02;;;;;;;14.18;7.95;;;;;;;16.36;56.14;101428.16;8272988;28;20038;-56
2023/04/17 13:15:03;;;;;;;11.02;7.72;;;;;;;16.35;56.70;101426.47;8294421;28;20111;-57
2023/04/17 13:19:04;;;;;;;12.73;8.60;;;;;;;16.37;57.98;101424.41;8321412;28;20052;-57
2023/04/17 13:23:04;;;;;;;16.00;9.13;;;;;;;16.29;58.46;101421.63;8299916;28;20061;-56
2023/04/17 13:27:04;;;;;;;12.50;9.27;;;;;;;16.28;59.46;101425.38;8316933;28;20037;-56
2023/04/17 13:31:05;;;;;;;10.98;7.25;;;;;;;16.24;58.45;101424.81;8305206;28;20033;-56
2023/04/17 13:35:08;;;;;;;12.23;7.32;;;;;;;16.39;59.77;101422.41;8299676;28;20059;-56
2023/04/17 13:39:09;;;;;;;11.98;7.28;;;;;;;16.36;58.33;101414.50;8316862;28;20048;-56
2023/04/17 13:43:10;;;;;;;10.48;6.80;;;;;;;16.55;56.80;101411.66;8319049;28;20033;-56
2023/04/17 13:47:12;;;;;;;10.38;7.10;;;;;;;16.96;56.14;101410.97;8292265;28;20041;-56
2023/04/17 13:51:12;;;;;;;7.88;6.90;;;;;;;16.71;56.69;101409.09;8296026;28;20179;-56
2023/04/17 13:55:13;;;;;;;8.95;7.22;;;;;;;16.22;57.23;101401.44;8321831;28;20045;-56
2023/04/17 13:59:13;;;;;;;9.85;6.70;;;;;;;16.14;56.55;101404.06;8319581;28;20407;-56
2023/04/17 14:03:14;;;;;;;9.77;7.50;;;;;;;16.48;56.41;101405.09;8292610;28;20044;-56
2023/04/17 14:07:15;;;;;;;8.80;6.75;;;;;;;16.61;57.15;101384.59;8291852;28;20040;-58
2023/04/17 14:11:17;;;;;;;9.93;7.35;;;;;;;16.35;57.51;101400.00;8308931;28;20044;-56
2023/04/17 14:15:17;;;;;;;15.43;9.32;;;;;;;16.38;57.67;101393.38;8313691;28;20593;-56
2023/04/17 14:19:18;;;;;;;14.02;8.20;;;;;;;16.34;57.12;101390.09;8304574;28;20535;-55
2023/04/17 14:23:19;;;;;;;14.05;7.57;;;;;;;16.22;56.95;101398.69;8302200;28;20408;-55
2023/04/17 14:27:19;;;;;;;10.55;7.38;;;;;;;16.07;57.60;101401.09;8305538;28;20075;-55
2023/04/17 14:31:20;;;;;;;13.02;8.30;;;;;;;16.04;57.07;101395.09;8297147;28;20038;-56
2023/04/17 14:35:21;;;;;;;13.02;7.68;;;;;;;16.50;57.10;101387.56;8285544;28;20050;-55
2023/04/17 14:39:21;;;;;;;10.98;7.80;;;;;;;16.52;56.04;101384.66;8299526;28;20585;-55
2023/04/17 14:43:22;;;;;;;8.23;6.28;;;;;;;16.57;56.76;101393.25;8303847;28;20048;-55
2023/04/17 14:47:22;;;;;;;8.20;6.28;;;;;;;16.21;56.60;101386.06;8295937;28;20121;-60
2023/04/17 14:51:23;;;;;;;9.15;6.72;;;;;;;16.11;57.76;101393.47;8300572;28;20038;-60
2023/04/17 14:55:23;;;;;;;9.77;7.03;;;;;;;16.07;56.57;101394.78;8299761;28;20068;-61
2023/04/17 14:59:26;;;;;;;12.23;7.13;;;;;;;15.99;57.63;101386.50;8303344;28;20057;-57
2023/04/17 15:03:26;;;;;;;11.38;8.10;;;;;;;15.90;58.33;101390.16;8299628;28;20045;-57
2023/04/17 15:07:27;;;;;;;10.48;6.80;;;;;;;15.89;58.37;101393.91;8295801;28;20038;-61
2023/04/17 15:11:27;;;;;;;11.23;7.18;;;;;;;15.86;58.00;101386.91;8302842;28;20522;-61
2023/04/17 15:15:28;;;;;;;13.70;7.47;;;;;;;15.85;59.54;101384.31;8295724;28;20050;-61
2023/04/17 15:19:28;;;;;;;11.23;7.63;;;;;;;15.87;57.97;101393.19;8305646;28;20064;-61
2023/04/17 15:23:29;;;;;;;12.13;7.32;;;;;;;15.88;57.62;101389.44;8315105;28;20048;-57
2023/04/17 15:27:29;;;;;;;9.63;7.18;;;;;;;15.82;57.24;101384.63;8298574;28;20385;-57
2023/04/17 15:31:30;;;;;;;9.52;6.75;;;;;;;15.77;57.90;101394.09;8337348;28;20033;-57
2023/04/17 15:35:30;;;;;;;13.50;7.22;;;;;;;15.73;57.73;101386.38;8323683;28;20051;-57
2023/04/17 15:39:34;;;;;;;9.63;7.03;;;;;;;15.57;58.67;101388.91;8323308;28;20128;-56
2023/04/17 15:43:34;;;;;;;10.73;7.43;;;;;;;15.67;57.99;101393.31;8327355;28;20041;-56
2023/04/17 15:47:35;;;;;;;11.68;6.72;;;;;;;15.91;57.62;101380.94;8290977;28;20042;-56
2023/04/17 15:51:35;;;;;;;11.52;8.10;;;;;;;16.05;57.50;101377.72;8298776;28;20041;-55
2023/04/17 15:55:37;;;;;;;10.18;6.93;;;;;;;16.21;57.58;101375.13;8326658;28;20105;-57
2023/04/17 15:59:37;;;;;;;13.95;8.25;;;;;;;16.03;56.83;101379.72;8303375;28;20529;-62
2023/04/17 16:03:39;;;;;;;10.05;8.25;;;;;;;15.74;58.15;101383.50;8318643;28;20380;-62
2023/04/17 16:07:40;;;;;;;11.50;7.15;;;;;;;15.55;58.52;101383.63;8297290;28;20118;-61
2023/04/17 16:11:40;;;;;;;12.30;7.18;;;;;;;15.43;58.09;101386.69;8301907;28;20038;-63
2023/04/17 16:15:40;;;;;;;14.00;7.43;;;;;;;15.37;59.01;101374.53;8301938;28;20503;-62
2023/04/17 16:19:41;;;;;;;12.88;7.30;;;;;;;15.31;58.01;101361.47;8311280;28;20044;-62
2023/04/17 16:23:44;;;;;;;12.98;7.57;;;;;;;15.32;58.94;101374.09;8318047;28;20116;-63
2023/04/17 16:27:44;;;;;;;9.82;7.90;;;;;;;15.28;59.34;101380.84;8288852;28;20034;-62
2023/04/17 16:31:45;;;;;;;12.70;7.53;;;;;;;15.42;56.54;101380.38;8304538;28;20522;-62
2023/04/17 16:35:45;;;;;;;13.93;7.82;;;;;;;15.50;55.79;101377.75;8299871;28;20038;-62
2023/04/17 16:39:46;;;;;;;12.93;7.78;;;;;;;15.53;55.84;101380.16;8318477;28;20037;-57
2023/04/17 16:43:46;;;;;;;13.48;7.10;;;;;;;15.53;55.81;101380.16;8320866;28;20029;-57
2023/04/17 16:47:46;;;;;;;8.90;6.80;;;;;;;15.46;54.35;101381.78;8322085;28;20493;-57
2023/04/17 16:51:47;;;;;;;11.32;7.50;;;;;;;15.42;54.75;101383.13;8321495;28;20603;-57
2023/04/17 16:55:47;;;;;;;13.65;8.50;;;;;;;15.43;55.21;101376.66;8316632;28;20049;-61
2023/04/17 16:59:48;;;;;;;11.60;7.85;;;;;;;15.43;55.41;101383.94;8301752;28;20695;-62
